sensor_id;sensor_type;location;lat;lon;timestamp;P1;durP1;ratioP1;P2;durP2;ratioP2
19137;SDS011;68178;52.188;5.598;2023-03-01T00:02:09;11.38;;;8.90;;
19137;SDS011;68178;52.188;5.598;2023-03-01T00:04:35;11.82;;;8.43;;
19137;SDS011;68178;52.188;5.598;2023-03-01T00:07:01;11.40;;;8.70;;
19137;SDS011;68178;52.188;5.598;2023-03-01T00:09:30;10.93;;;8.05;;
19137;SDS011;68178;52.188;5.598;2023-03-01T00:11:56;12.45;;;8.75;;
19137;SDS011;68178;52.188;5.598;2023-03-01T00:14:22;10.40;;;8.27;;
19137;SDS011;68178;52.188;5.598;2023-03-01T00:16:48;9.43;;;7.95;;
19137;SDS011;68178;52.188;5.598;2023-03-01T00:19:16;13.63;;;8.95;;
19137;SDS011;68178;52.188;5.598;2023-03-01T00:21:42;13.55;;;8.77;;
19137;SDS011;68178;52.188;5.598;2023-03-01T00:24:08;11.57;;;8.38;;
19137;SDS011;68178;52.188;5.598;2023-03-01T00:26:35;12.90;;;9.13;;
19137;SDS011;68178;52.188;5.598;2023-03-01T00:29:01;11.40;;;9.13;;
19137;SDS011;68178;52.188;5.598;2023-03-01T00:31:28;11.57;;;8.95;;
19137;SDS011;68178;52.188;5.598;2023-03-01T00:33:55;13.45;;;9.07;;
19137;SDS011;68178;52.188;5.598;2023-03-01T00:36:22;12.48;;;8.77;;
19137;SDS011;68178;52.188;5.598;2023-03-01T00:38:48;10.32;;;8.48;;
19137;SDS011;68178;52.188;5.598;2023-03-01T00:41:15;13.57;;;10.05;;
19137;SDS011;68178;52.188;5.598;2023-03-01T00:43:41;12.00;;;9.20;;
19137;SDS011;68178;52.188;5.598;2023-03-01T00:46:08;12.75;;;9.05;;
19137;SDS011;68178;52.188;5.598;2023-03-01T00:48:35;12.38;;;8.65;;
19137;SDS011;68178;52.188;5.598;2023-03-01T00:51:05;12.13;;;8.55;;
19137;SDS011;68178;52.188;5.598;2023-03-01T00:53:31;10.70;;;8.70;;
19137;SDS011;68178;52.188;5.598;2023-03-01T00:55:57;10.57;;;8.93;;
19137;SDS011;68178;52.188;5.598;2023-03-01T00:58:24;10.63;;;7.78;;
19137;SDS011;68178;52.188;5.598;2023-03-01T01:00:50;11.93;;;7.70;;
19137;SDS011;68178;52.188;5.598;2023-03-01T01:03:17;11.13;;;7.68;;
19137;SDS011;68178;52.188;5.598;2023-03-01T01:05:43;12.05;;;8.45;;
19137;SDS011;68178;52.188;5.598;2023-03-01T01:08:09;9.00;;;7.50;;
19137;SDS011;68178;52.188;5.598;2023-03-01T01:10:35;11.07;;;8.43;;
19137;SDS011;68178;52.188;5.598;2023-03-01T01:13:01;8.45;;;7.22;;
19137;SDS011;68178;52.188;5.598;2023-03-01T01:15:27;12.60;;;7.35;;
19137;SDS011;68178;52.188;5.598;2023-03-01T01:17:53;12.18;;;7.97;;
19137;SDS011;68178;52.188;5.598;2023-03-01T01:20:19;12.57;;;8.25;;
19137;SDS011;68178;52.188;5.598;2023-03-01T01:22:45;9.00;;;7.57;;
19137;SDS011;68178;52.188;5.598;2023-03-01T01:25:11;10.30;;;7.47;;
19137;SDS011;68178;52.188;5.598;2023-03-01T01:27:37;10.23;;;8.05;;
19137;SDS011;68178;52.188;5.598;2023-03-01T01:30:03;10.27;;;7.57;;
19137;SDS011;68178;52.188;5.598;2023-03-01T01:32:30;12.68;;;7.97;;
19137;SDS011;68178;52.188;5.598;2023-03-01T01:34:56;11.15;;;7.82;;
19137;SDS011;68178;52.188;5.598;2023-03-01T01:37:21;9.40;;;7.88;;
19137;SDS011;68178;52.188;5.598;2023-03-01T01:39:48;11.57;;;7.78;;
19137;SDS011;68178;52.188;5.598;2023-03-01T01:42:17;9.73;;;7.55;;
19137;SDS011;68178;52.188;5.598;2023-03-01T01:44:47;11.32;;;7.90;;
19137;SDS011;68178;52.188;5.598;2023-03-01T01:47:14;8.07;;;7.22;;
19137;SDS011;68178;52.188;5.598;2023-03-01T01:49:46;11.18;;;8.27;;
19137;SDS011;68178;52.188;5.598;2023-03-01T01:52:14;12.50;;;7.85;;
19137;SDS011;68178;52.188;5.598;2023-03-01T01:54:44;10.73;;;7.95;;
19137;SDS011;68178;52.188;5.598;2023-03-01T01:57:13;10.10;;;8.45;;
19137;SDS011;68178;52.188;5.598;2023-03-01T01:59:45;13.63;;;8.60;;
19137;SDS011;68178;52.188;5.598;2023-03-01T02:02:11;10.55;;;8.02;;
19137;SDS011;68178;52.188;5.598;2023-03-01T02:04:37;11.13;;;9.13;;
19137;SDS011;68178;52.188;5.598;2023-03-01T02:07:06;10.70;;;8.45;;
19137;SDS011;68178;52.188;5.598;2023-03-01T02:09:32;10.30;;;8.23;;
19137;SDS011;68178;52.188;5.598;2023-03-01T02:11:59;12.52;;;9.07;;
19137;SDS011;68178;52.188;5.598;2023-03-01T02:14:25;13.20;;;10.20;;
19137;SDS011;68178;52.188;5.598;2023-03-01T02:16:51;14.18;;;9.15;;
19137;SDS011;68178;52.188;5.598;2023-03-01T02:19:27;12.38;;;8.73;;
19137;SDS011;68178;52.188;5.598;2023-03-01T02:22:03;9.70;;;8.15;;
19137;SDS011;68178;52.188;5.598;2023-03-01T02:24:40;12.02;;;8.93;;
19137;SDS011;68178;52.188;5.598;2023-03-01T02:27:11;14.20;;;8.35;;
19137;SDS011;68178;52.188;5.598;2023-03-01T02:29:37;10.02;;;8.20;;
19137;SDS011;68178;52.188;5.598;2023-03-01T02:32:04;12.40;;;9.18;;
19137;SDS011;68178;52.188;5.598;2023-03-01T02:34:30;17.98;;;9.55;;
19137;SDS011;68178;52.188;5.598;2023-03-01T02:37:01;12.13;;;8.73;;
19137;SDS011;68178;52.188;5.598;2023-03-01T02:42:30;11.00;;;9.07;;
19137;SDS011;68178;52.188;5.598;2023-03-01T02:44:57;14.30;;;9.15;;
19137;SDS011;68178;52.188;5.598;2023-03-01T02:47:23;13.05;;;9.45;;
19137;SDS011;68178;52.188;5.598;2023-03-01T02:49:49;13.90;;;8.73;;
19137;SDS011;68178;52.188;5.598;2023-03-01T02:54:56;14.02;;;9.55;;
19137;SDS011;68178;52.188;5.598;2023-03-01T02:57:24;12.23;;;9.65;;
19137;SDS011;68178;52.188;5.598;2023-03-01T02:59:52;12.07;;;10.38;;
19137;SDS011;68178;52.188;5.598;2023-03-01T03:02:20;11.50;;;9.27;;
19137;SDS011;68178;52.188;5.598;2023-03-01T03:05:00;14.70;;;10.32;;
19137;SDS011;68178;52.188;5.598;2023-03-01T03:07:26;12.75;;;9.32;;
19137;SDS011;68178;52.188;5.598;2023-03-01T03:09:52;13.57;;;9.35;;
19137;SDS011;68178;52.188;5.598;2023-03-01T03:12:18;14.90;;;8.90;;
19137;SDS011;68178;52.188;5.598;2023-03-01T03:14:44;10.70;;;8.52;;
19137;SDS011;68178;52.188;5.598;2023-03-01T03:17:10;10.90;;;9.02;;
19137;SDS011;68178;52.188;5.598;2023-03-01T03:19:36;12.57;;;10.02;;
19137;SDS011;68178;52.188;5.598;2023-03-01T03:22:02;14.45;;;9.32;;
19137;SDS011;68178;52.188;5.598;2023-03-01T03:24:28;11.15;;;8.68;;
19137;SDS011;68178;52.188;5.598;2023-03-01T03:27:02;11.20;;;9.70;;
19137;SDS011;68178;52.188;5.598;2023-03-01T03:29:28;11.73;;;9.63;;
19137;SDS011;68178;52.188;5.598;2023-03-01T03:31:54;11.70;;;9.45;;
19137;SDS011;68178;52.188;5.598;2023-03-01T03:34:20;10.75;;;8.98;;
19137;SDS011;68178;52.188;5.598;2023-03-01T03:36:46;13.45;;;9.82;;
19137;SDS011;68178;52.188;5.598;2023-03-01T03:39:12;10.63;;;8.90;;
19137;SDS011;68178;52.188;5.598;2023-03-01T03:41:38;13.38;;;9.60;;
19137;SDS011;68178;52.188;5.598;2023-03-01T03:44:04;12.52;;;9.55;;
19137;SDS011;68178;52.188;5.598;2023-03-01T03:46:30;12.88;;;8.93;;
19137;SDS011;68178;52.188;5.598;2023-03-01T03:48:56;15.30;;;10.32;;
19137;SDS011;68178;52.188;5.598;2023-03-01T03:51:22;16.10;;;10.05;;
19137;SDS011;68178;52.188;5.598;2023-03-01T03:53:48;12.25;;;8.88;;
19137;SDS011;68178;52.188;5.598;2023-03-01T03:56:14;12.15;;;10.20;;
19137;SDS011;68178;52.188;5.598;2023-03-01T03:58:40;11.75;;;9.93;;
19137;SDS011;68178;52.188;5.598;2023-03-01T04:01:06;14.68;;;9.65;;
19137;SDS011;68178;52.188;5.598;2023-03-01T04:03:32;13.77;;;10.75;;
19137;SDS011;68178;52.188;5.598;2023-03-01T04:06:00;14.70;;;10.63;;
19137;SDS011;68178;52.188;5.598;2023-03-01T04:08:26;12.52;;;9.70;;
19137;SDS011;68178;52.188;5.598;2023-03-01T04:10:56;11.52;;;9.27;;
19137;SDS011;68178;52.188;5.598;2023-03-01T04:13:22;13.10;;;9.88;;
19137;SDS011;68178;52.188;5.598;2023-03-01T04:15:50;13.60;;;10.18;;
19137;SDS011;68178;52.188;5.598;2023-03-01T04:18:17;11.75;;;9.35;;
19137;SDS011;68178;52.188;5.598;2023-03-01T04:20:43;12.05;;;9.45;;
19137;SDS011;68178;52.188;5.598;2023-03-01T04:23:14;12.57;;;9.50;;
19137;SDS011;68178;52.188;5.598;2023-03-01T04:28:11;13.52;;;9.80;;
19137;SDS011;68178;52.188;5.598;2023-03-01T04:30:37;15.68;;;9.77;;
19137;SDS011;68178;52.188;5.598;2023-03-01T04:33:07;15.52;;;11.05;;
19137;SDS011;68178;52.188;5.598;2023-03-01T04:35:34;15.90;;;12.50;;
19137;SDS011;68178;52.188;5.598;2023-03-01T04:38:00;18.20;;;12.02;;
19137;SDS011;68178;52.188;5.598;2023-03-01T04:40:26;18.23;;;12.32;;
19137;SDS011;68178;52.188;5.598;2023-03-01T04:42:52;20.52;;;12.57;;
19137;SDS011;68178;52.188;5.598;2023-03-01T04:45:18;23.50;;;14.10;;
19137;SDS011;68178;52.188;5.598;2023-03-01T04:47:45;24.80;;;14.40;;
19137;SDS011;68178;52.188;5.598;2023-03-01T04:50:17;19.02;;;13.80;;
19137;SDS011;68178;52.188;5.598;2023-03-01T04:52:46;20.35;;;13.75;;
19137;SDS011;68178;52.188;5.598;2023-03-01T04:55:12;17.70;;;11.88;;
19137;SDS011;68178;52.188;5.598;2023-03-01T04:57:38;16.88;;;11.63;;
19137;SDS011;68178;52.188;5.598;2023-03-01T05:00:04;14.73;;;9.60;;
19137;SDS011;68178;52.188;5.598;2023-03-01T05:03:05;14.77;;;9.73;;
19137;SDS011;68178;52.188;5.598;2023-03-01T05:05:33;15.07;;;10.35;;
19137;SDS011;68178;52.188;5.598;2023-03-01T05:08:00;15.18;;;10.18;;
19137;SDS011;68178;52.188;5.598;2023-03-01T05:10:27;16.48;;;10.95;;
19137;SDS011;68178;52.188;5.598;2023-03-01T05:12:57;16.13;;;11.02;;
19137;SDS011;68178;52.188;5.598;2023-03-01T05:15:23;15.63;;;11.43;;
19137;SDS011;68178;52.188;5.598;2023-03-01T05:17:53;16.90;;;11.40;;
19137;SDS011;68178;52.188;5.598;2023-03-01T05:20:19;17.80;;;10.50;;
19137;SDS011;68178;52.188;5.598;2023-03-01T05:22:49;15.00;;;10.95;;
19137;SDS011;68178;52.188;5.598;2023-03-01T05:25:15;16.52;;;11.45;;
19137;SDS011;68178;52.188;5.598;2023-03-01T05:27:42;14.27;;;10.20;;
19137;SDS011;68178;52.188;5.598;2023-03-01T05:30:08;13.35;;;9.63;;
19137;SDS011;68178;52.188;5.598;2023-03-01T05:32:44;16.30;;;10.57;;
19137;SDS011;68178;52.188;5.598;2023-03-01T05:35:11;16.00;;;11.15;;
19137;SDS011;68178;52.188;5.598;2023-03-01T05:37:38;17.58;;;11.30;;
19137;SDS011;68178;52.188;5.598;2023-03-01T05:40:04;14.48;;;10.65;;
19137;SDS011;68178;52.188;5.598;2023-03-01T05:42:30;18.20;;;10.77;;
19137;SDS011;68178;52.188;5.598;2023-03-01T05:44:56;16.15;;;10.50;;
19137;SDS011;68178;52.188;5.598;2023-03-01T05:47:22;16.35;;;10.38;;
19137;SDS011;68178;52.188;5.598;2023-03-01T05:49:48;12.73;;;9.80;;
19137;SDS011;68178;52.188;5.598;2023-03-01T05:52:15;13.77;;;10.80;;
19137;SDS011;68178;52.188;5.598;2023-03-01T05:54:41;15.18;;;11.25;;
19137;SDS011;68178;52.188;5.598;2023-03-01T05:57:07;14.60;;;10.88;;
19137;SDS011;68178;52.188;5.598;2023-03-01T05:59:33;17.60;;;11.23;;
19137;SDS011;68178;52.188;5.598;2023-03-01T06:02:00;16.05;;;10.35;;
19137;SDS011;68178;52.188;5.598;2023-03-01T06:04:25;16.17;;;10.38;;
19137;SDS011;68178;52.188;5.598;2023-03-01T06:06:51;14.93;;;11.10;;
19137;SDS011;68178;52.188;5.598;2023-03-01T06:09:17;13.60;;;10.50;;
19137;SDS011;68178;52.188;5.598;2023-03-01T06:11:43;13.27;;;9.55;;
19137;SDS011;68178;52.188;5.598;2023-03-01T06:14:09;13.65;;;9.02;;
19137;SDS011;68178;52.188;5.598;2023-03-01T06:16:38;14.82;;;10.15;;
19137;SDS011;68178;52.188;5.598;2023-03-01T06:19:04;17.10;;;11.00;;
19137;SDS011;68178;52.188;5.598;2023-03-01T06:21:30;16.58;;;11.00;;
19137;SDS011;68178;52.188;5.598;2023-03-01T06:23:56;14.40;;;10.75;;
19137;SDS011;68178;52.188;5.598;2023-03-01T06:26:22;11.68;;;9.77;;
19137;SDS011;68178;52.188;5.598;2023-03-01T06:28:48;14.68;;;10.68;;
19137;SDS011;68178;52.188;5.598;2023-03-01T06:31:14;19.27;;;10.35;;
19137;SDS011;68178;52.188;5.598;2023-03-01T06:33:40;16.25;;;10.30;;
19137;SDS011;68178;52.188;5.598;2023-03-01T06:36:09;16.95;;;10.07;;
19137;SDS011;68178;52.188;5.598;2023-03-01T06:38:35;12.38;;;9.88;;
19137;SDS011;68178;52.188;5.598;2023-03-01T06:41:01;17.10;;;9.65;;
19137;SDS011;68178;52.188;5.598;2023-03-01T06:43:27;15.85;;;10.88;;
19137;SDS011;68178;52.188;5.598;2023-03-01T06:45:53;15.38;;;10.60;;
19137;SDS011;68178;52.188;5.598;2023-03-01T06:48:19;13.18;;;9.98;;
19137;SDS011;68178;52.188;5.598;2023-03-01T06:50:45;15.88;;;10.57;;
19137;SDS011;68178;52.188;5.598;2023-03-01T06:53:11;12.75;;;10.02;;
19137;SDS011;68178;52.188;5.598;2023-03-01T06:55:37;13.63;;;9.88;;
19137;SDS011;68178;52.188;5.598;2023-03-01T06:58:03;12.32;;;9.00;;
19137;SDS011;68178;52.188;5.598;2023-03-01T07:00:29;14.00;;;10.57;;
19137;SDS011;68178;52.188;5.598;2023-03-01T07:02:57;16.77;;;11.10;;
19137;SDS011;68178;52.188;5.598;2023-03-01T07:05:24;17.17;;;10.43;;
19137;SDS011;68178;52.188;5.598;2023-03-01T07:07:49;17.45;;;11.43;;
19137;SDS011;68178;52.188;5.598;2023-03-01T07:10:15;15.63;;;10.57;;
19137;SDS011;68178;52.188;5.598;2023-03-01T07:12:41;15.55;;;10.50;;
19137;SDS011;68178;52.188;5.598;2023-03-01T07:15:08;15.02;;;10.63;;
19137;SDS011;68178;52.188;5.598;2023-03-01T07:17:35;13.73;;;9.20;;
19137;SDS011;68178;52.188;5.598;2023-03-01T07:20:01;13.18;;;10.20;;
19137;SDS011;68178;52.188;5.598;2023-03-01T07:22:27;16.80;;;11.23;;
19137;SDS011;68178;52.188;5.598;2023-03-01T07:24:53;17.05;;;10.18;;
19137;SDS011;68178;52.188;5.598;2023-03-01T07:27:19;16.65;;;10.57;;
19137;SDS011;68178;52.188;5.598;2023-03-01T07:29:44;16.45;;;11.40;;
19137;SDS011;68178;52.188;5.598;2023-03-01T07:32:10;14.27;;;11.07;;
19137;SDS011;68178;52.188;5.598;2023-03-01T07:34:36;18.63;;;12.07;;
19137;SDS011;68178;52.188;5.598;2023-03-01T07:37:02;15.43;;;10.75;;
19137;SDS011;68178;52.188;5.598;2023-03-01T07:39:28;16.30;;;11.48;;
19137;SDS011;68178;52.188;5.598;2023-03-01T07:41:54;14.75;;;10.73;;
19137;SDS011;68178;52.188;5.598;2023-03-01T07:44:20;53.38;;;16.33;;
19137;SDS011;68178;52.188;5.598;2023-03-01T07:46:46;23.25;;;13.40;;
19137;SDS011;68178;52.188;5.598;2023-03-01T07:49:12;26.50;;;14.90;;
19137;SDS011;68178;52.188;5.598;2023-03-01T07:51:38;23.83;;;13.82;;
19137;SDS011;68178;52.188;5.598;2023-03-01T07:54:04;19.85;;;12.55;;
19137;SDS011;68178;52.188;5.598;2023-03-01T07:56:33;15.60;;;11.98;;
19137;SDS011;68178;52.188;5.598;2023-03-01T07:58:59;15.98;;;13.13;;
19137;SDS011;68178;52.188;5.598;2023-03-01T08:01:25;15.73;;;12.55;;
19137;SDS011;68178;52.188;5.598;2023-03-01T08:03:51;15.70;;;11.68;;
19137;SDS011;68178;52.188;5.598;2023-03-01T08:06:18;20.20;;;14.10;;
19137;SDS011;68178;52.188;5.598;2023-03-01T08:08:44;23.17;;;15.38;;
19137;SDS011;68178;52.188;5.598;2023-03-01T08:11:11;18.13;;;13.73;;
19137;SDS011;68178;52.188;5.598;2023-03-01T08:13:38;17.83;;;12.52;;
19137;SDS011;68178;52.188;5.598;2023-03-01T08:16:07;13.90;;;10.82;;
19137;SDS011;68178;52.188;5.598;2023-03-01T08:18:33;15.98;;;12.10;;
19137;SDS011;68178;52.188;5.598;2023-03-01T08:21:07;14.48;;;11.25;;
19137;SDS011;68178;52.188;5.598;2023-03-01T08:23:33;12.23;;;10.40;;
19137;SDS011;68178;52.188;5.598;2023-03-01T08:26:09;13.35;;;9.43;;
19137;SDS011;68178;52.188;5.598;2023-03-01T08:28:36;12.48;;;9.35;;
19137;SDS011;68178;52.188;5.598;2023-03-01T08:31:02;9.93;;;8.50;;
19137;SDS011;68178;52.188;5.598;2023-03-01T08:33:28;11.32;;;9.13;;
19137;SDS011;68178;52.188;5.598;2023-03-01T08:36:04;9.18;;;7.78;;
19137;SDS011;68178;52.188;5.598;2023-03-01T08:38:32;9.63;;;7.60;;
19137;SDS011;68178;52.188;5.598;2023-03-01T08:41:03;8.98;;;8.07;;
19137;SDS011;68178;52.188;5.598;2023-03-01T08:43:29;11.00;;;8.23;;
19137;SDS011;68178;52.188;5.598;2023-03-01T08:45:55;10.60;;;8.15;;
19137;SDS011;68178;52.188;5.598;2023-03-01T08:48:21;8.85;;;7.35;;
19137;SDS011;68178;52.188;5.598;2023-03-01T08:50:47;10.05;;;7.70;;
19137;SDS011;68178;52.188;5.598;2023-03-01T08:53:13;9.65;;;7.15;;
19137;SDS011;68178;52.188;5.598;2023-03-01T08:55:39;10.50;;;6.80;;
19137;SDS011;68178;52.188;5.598;2023-03-01T08:58:05;9.05;;;7.22;;
19137;SDS011;68178;52.188;5.598;2023-03-01T09:00:31;8.85;;;7.05;;
19137;SDS011;68178;52.188;5.598;2023-03-01T09:02:59;6.95;;;6.25;;
19137;SDS011;68178;52.188;5.598;2023-03-01T09:05:25;7.63;;;6.00;;
19137;SDS011;68178;52.188;5.598;2023-03-01T09:07:51;7.03;;;5.38;;
19137;SDS011;68178;52.188;5.598;2023-03-01T09:10:17;7.75;;;6.18;;
19137;SDS011;68178;52.188;5.598;2023-03-01T09:12:43;7.85;;;6.10;;
19137;SDS011;68178;52.188;5.598;2023-03-01T09:15:09;6.65;;;4.82;;
19137;SDS011;68178;52.188;5.598;2023-03-01T09:17:35;6.00;;;5.22;;
19137;SDS011;68178;52.188;5.598;2023-03-01T09:20:01;5.80;;;5.30;;
19137;SDS011;68178;52.188;5.598;2023-03-01T09:22:30;6.15;;;5.55;;
19137;SDS011;68178;52.188;5.598;2023-03-01T09:24:56;8.23;;;5.60;;
19137;SDS011;68178;52.188;5.598;2023-03-01T09:27:24;5.38;;;4.88;;
19137;SDS011;68178;52.188;5.598;2023-03-01T09:29:50;7.63;;;4.57;;
19137;SDS011;68178;52.188;5.598;2023-03-01T09:32:16;4.85;;;3.75;;
19137;SDS011;68178;52.188;5.598;2023-03-01T09:34:42;8.68;;;4.32;;
19137;SDS011;68178;52.188;5.598;2023-03-01T09:37:28;6.88;;;5.07;;
19137;SDS011;68178;52.188;5.598;2023-03-01T09:39:54;6.55;;;5.03;;
19137;SDS011;68178;52.188;5.598;2023-03-01T09:42:20;7.70;;;5.10;;
19137;SDS011;68178;52.188;5.598;2023-03-01T09:44:51;7.63;;;5.30;;
19137;SDS011;68178;52.188;5.598;2023-03-01T09:47:18;5.68;;;4.50;;
19137;SDS011;68178;52.188;5.598;2023-03-01T09:49:46;4.60;;;4.03;;
19137;SDS011;68178;52.188;5.598;2023-03-01T09:55:01;6.82;;;4.88;;
19137;SDS011;68178;52.188;5.598;2023-03-01T09:57:38;5.90;;;5.10;;
19137;SDS011;68178;52.188;5.598;2023-03-01T10:05:10;6.13;;;4.70;;
19137;SDS011;68178;52.188;5.598;2023-03-01T10:10:23;5.10;;;4.05;;
19137;SDS011;68178;52.188;5.598;2023-03-01T10:12:51;4.45;;;3.83;;
19137;SDS011;68178;52.188;5.598;2023-03-01T10:15:18;3.10;;;2.80;;
19137;SDS011;68178;52.188;5.598;2023-03-01T10:18:03;4.30;;;2.83;;
19137;SDS011;68178;52.188;5.598;2023-03-01T10:20:36;3.60;;;2.88;;
19137;SDS011;68178;52.188;5.598;2023-03-01T10:23:04;4.47;;;3.22;;
19137;SDS011;68178;52.188;5.598;2023-03-01T10:25:38;4.90;;;3.20;;
19137;SDS011;68178;52.188;5.598;2023-03-01T10:28:09;3.00;;;2.70;;
19137;SDS011;68178;52.188;5.598;2023-03-01T10:30:37;3.85;;;2.65;;
19137;SDS011;68178;52.188;5.598;2023-03-01T10:33:14;3.95;;;2.95;;
19137;SDS011;68178;52.188;5.598;2023-03-01T10:35:42;6.00;;;3.60;;
19137;SDS011;68178;52.188;5.598;2023-03-01T10:38:09;4.35;;;3.58;;
19137;SDS011;68178;52.188;5.598;2023-03-01T10:43:24;3.40;;;2.90;;
19137;SDS011;68178;52.188;5.598;2023-03-01T10:45:50;6.30;;;3.88;;
19137;SDS011;68178;52.188;5.598;2023-03-01T10:50:43;3.80;;;2.90;;
19137;SDS011;68178;52.188;5.598;2023-03-01T10:53:29;10.38;;;3.53;;
19137;SDS011;68178;52.188;5.598;2023-03-01T10:58:33;5.28;;;3.28;;
19137;SDS011;68178;52.188;5.598;2023-03-01T11:01:01;3.25;;;2.95;;
19137;SDS011;68178;52.188;5.598;2023-03-01T11:03:29;2.67;;;2.42;;
19137;SDS011;68178;52.188;5.598;2023-03-01T11:08:35;4.30;;;3.22;;
19137;SDS011;68178;52.188;5.598;2023-03-01T11:14:03;30.05;;;5.68;;
19137;SDS011;68178;52.188;5.598;2023-03-01T11:16:35;4.13;;;3.42;;
19137;SDS011;68178;52.188;5.598;2023-03-01T11:21:34;4.40;;;3.70;;
19137;SDS011;68178;52.188;5.598;2023-03-01T11:24:01;4.55;;;4.07;;
19137;SDS011;68178;52.188;5.598;2023-03-01T11:26:28;5.55;;;4.07;;
19137;SDS011;68178;52.188;5.598;2023-03-01T11:28:56;9.40;;;6.82;;
19137;SDS011;68178;52.188;5.598;2023-03-01T11:31:24;6.15;;;4.40;;
19137;SDS011;68178;52.188;5.598;2023-03-01T11:33:58;4.28;;;3.88;;
19137;SDS011;68178;52.188;5.598;2023-03-01T11:36:59;4.30;;;3.80;;
19137;SDS011;68178;52.188;5.598;2023-03-01T11:41:52;5.13;;;4.63;;
19137;SDS011;68178;52.188;5.598;2023-03-01T11:44:25;5.53;;;4.13;;
19137;SDS011;68178;52.188;5.598;2023-03-01T11:50:23;3.58;;;3.28;;
19137;SDS011;68178;52.188;5.598;2023-03-01T12:02:55;4.10;;;3.70;;
19137;SDS011;68178;52.188;5.598;2023-03-01T12:08:10;5.38;;;4.13;;
19137;SDS011;68178;52.188;5.598;2023-03-01T12:16:12;5.15;;;4.25;;
19137;SDS011;68178;52.188;5.598;2023-03-01T12:28:49;4.05;;;3.65;;
19137;SDS011;68178;52.188;5.598;2023-03-01T12:31:25;8.48;;;3.63;;
19137;SDS011;68178;52.188;5.598;2023-03-01T12:41:35;4.47;;;3.70;;
19137;SDS011;68178;52.188;5.598;2023-03-01T12:44:19;4.38;;;3.55;;
19137;SDS011;68178;52.188;5.598;2023-03-01T12:46:56;6.47;;;4.05;;
19137;SDS011;68178;52.188;5.598;2023-03-01T12:49:26;5.40;;;3.92;;
19137;SDS011;68178;52.188;5.598;2023-03-01T12:51:59;5.38;;;3.55;;
19137;SDS011;68178;52.188;5.598;2023-03-01T12:54:27;5.90;;;4.00;;
19137;SDS011;68178;52.188;5.598;2023-03-01T12:56:53;4.47;;;4.07;;
19137;SDS011;68178;52.188;5.598;2023-03-01T12:59:29;4.88;;;3.70;;
19137;SDS011;68178;52.188;5.598;2023-03-01T13:07:30;6.25;;;4.10;;
19137;SDS011;68178;52.188;5.598;2023-03-01T13:17:55;4.90;;;4.13;;
19137;SDS011;68178;52.188;5.598;2023-03-01T13:23:01;3.83;;;3.45;;
19137;SDS011;68178;52.188;5.598;2023-03-01T13:25:27;6.28;;;3.90;;
19137;SDS011;68178;52.188;5.598;2023-03-01T13:27:53;5.38;;;3.78;;
19137;SDS011;68178;52.188;5.598;2023-03-01T13:30:39;5.40;;;4.05;;
19137;SDS011;68178;52.188;5.598;2023-03-01T13:33:52;5.57;;;4.20;;
19137;SDS011;68178;52.188;5.598;2023-03-01T13:35:52;4.53;;;3.80;;
19137;SDS011;68178;52.188;5.598;2023-03-01T13:41:03;4.47;;;4.00;;
19137;SDS011;68178;52.188;5.598;2023-03-01T13:43:32;5.13;;;4.03;;
19137;SDS011;68178;52.188;5.598;2023-03-01T13:46:00;4.68;;;4.18;;
19137;SDS011;68178;52.188;5.598;2023-03-01T13:48:28;6.28;;;5.68;;
19137;SDS011;68178;52.188;5.598;2023-03-01T13:50:56;12.07;;;6.28;;
19137;SDS011;68178;52.188;5.598;2023-03-01T13:53:25;6.60;;;4.03;;
19137;SDS011;68178;52.188;5.598;2023-03-01T13:55:56;6.25;;;4.13;;
19137;SDS011;68178;52.188;5.598;2023-03-01T13:58:27;5.65;;;3.88;;
19137;SDS011;68178;52.188;5.598;2023-03-01T14:01:07;5.20;;;4.80;;
19137;SDS011;68178;52.188;5.598;2023-03-01T14:03:39;4.13;;;3.72;;
19137;SDS011;68178;52.188;5.598;2023-03-01T14:06:13;4.50;;;3.88;;
19137;SDS011;68178;52.188;5.598;2023-03-01T14:08:40;4.13;;;3.72;;
19137;SDS011;68178;52.188;5.598;2023-03-01T14:13:43;5.30;;;4.40;;
19137;SDS011;68178;52.188;5.598;2023-03-01T14:18:56;5.35;;;4.22;;
19137;SDS011;68178;52.188;5.598;2023-03-01T14:21:26;4.28;;;3.88;;
19137;SDS011;68178;52.188;5.598;2023-03-01T14:23:52;4.57;;;4.05;;
19137;SDS011;68178;52.188;5.598;2023-03-01T14:26:21;6.00;;;4.40;;
19137;SDS011;68178;52.188;5.598;2023-03-01T14:28:48;5.55;;;4.82;;
19137;SDS011;68178;52.188;5.598;2023-03-01T14:33:59;4.65;;;4.25;;
19137;SDS011;68178;52.188;5.598;2023-03-01T14:36:29;11.68;;;5.15;;
19137;SDS011;68178;52.188;5.598;2023-03-01T14:38:55;7.35;;;4.10;;
19137;SDS011;68178;52.188;5.598;2023-03-01T14:41:29;5.90;;;4.22;;
19137;SDS011;68178;52.188;5.598;2023-03-01T14:43:57;4.32;;;3.92;;
19137;SDS011;68178;52.188;5.598;2023-03-01T14:46:29;4.07;;;3.78;;
19137;SDS011;68178;52.188;5.598;2023-03-01T14:48:57;4.57;;;4.15;;
19137;SDS011;68178;52.188;5.598;2023-03-01T14:51:24;6.25;;;5.75;;
19137;SDS011;68178;52.188;5.598;2023-03-01T14:53:50;5.75;;;5.15;;
19137;SDS011;68178;52.188;5.598;2023-03-01T14:56:17;5.18;;;4.13;;
19137;SDS011;68178;52.188;5.598;2023-03-01T14:58:43;4.93;;;4.03;;
19137;SDS011;68178;52.188;5.598;2023-03-01T15:01:10;5.13;;;4.72;;
19137;SDS011;68178;52.188;5.598;2023-03-01T15:03:43;7.45;;;5.28;;
19137;SDS011;68178;52.188;5.598;2023-03-01T15:06:09;5.13;;;4.60;;
19137;SDS011;68178;52.188;5.598;2023-03-01T15:08:44;6.93;;;4.45;;
19137;SDS011;68178;52.188;5.598;2023-03-01T15:13:39;6.90;;;5.03;;
19137;SDS011;68178;52.188;5.598;2023-03-01T15:16:12;11.57;;;10.02;;
19137;SDS011;68178;52.188;5.598;2023-03-01T15:18:49;6.85;;;4.97;;
19137;SDS011;68178;52.188;5.598;2023-03-01T15:21:17;7.78;;;6.63;;
19137;SDS011;68178;52.188;5.598;2023-03-01T15:23:47;7.95;;;5.53;;
19137;SDS011;68178;52.188;5.598;2023-03-01T15:26:56;6.75;;;4.95;;
19137;SDS011;68178;52.188;5.598;2023-03-01T15:29:02;5.85;;;4.82;;
19137;SDS011;68178;52.188;5.598;2023-03-01T15:31:32;5.90;;;4.70;;
19137;SDS011;68178;52.188;5.598;2023-03-01T15:36:39;6.78;;;5.55;;
19137;SDS011;68178;52.188;5.598;2023-03-01T15:39:23;6.30;;;5.07;;
19137;SDS011;68178;52.188;5.598;2023-03-01T15:41:52;9.70;;;4.60;;
19137;SDS011;68178;52.188;5.598;2023-03-01T15:44:25;5.10;;;4.60;;
19137;SDS011;68178;52.188;5.598;2023-03-01T15:46:51;7.15;;;5.22;;
19137;SDS011;68178;52.188;5.598;2023-03-01T15:49:24;7.43;;;4.97;;
19137;SDS011;68178;52.188;5.598;2023-03-01T15:51:51;6.18;;;4.55;;
19137;SDS011;68178;52.188;5.598;2023-03-01T15:54:20;6.07;;;4.30;;
19137;SDS011;68178;52.188;5.598;2023-03-01T15:56:47;7.13;;;4.90;;
19137;SDS011;68178;52.188;5.598;2023-03-01T15:59:13;5.55;;;4.95;;
19137;SDS011;68178;52.188;5.598;2023-03-01T16:01:40;6.20;;;4.43;;
19137;SDS011;68178;52.188;5.598;2023-03-01T16:04:06;6.38;;;4.65;;
19137;SDS011;68178;52.188;5.598;2023-03-01T16:06:51;5.13;;;4.40;;
19137;SDS011;68178;52.188;5.598;2023-03-01T16:09:23;5.88;;;4.55;;
19137;SDS011;68178;52.188;5.598;2023-03-01T16:11:50;7.82;;;5.05;;
19137;SDS011;68178;52.188;5.598;2023-03-01T16:14:16;5.22;;;4.72;;
19137;SDS011;68178;52.188;5.598;2023-03-01T16:16:43;5.97;;;5.25;;
19137;SDS011;68178;52.188;5.598;2023-03-01T16:19:09;7.78;;;4.32;;
19137;SDS011;68178;52.188;5.598;2023-03-01T16:21:35;6.00;;;4.40;;
19137;SDS011;68178;52.188;5.598;2023-03-01T16:24:01;7.07;;;4.60;;
19137;SDS011;68178;52.188;5.598;2023-03-01T16:26:27;8.25;;;4.85;;
19137;SDS011;68178;52.188;5.598;2023-03-01T16:28:54;10.25;;;5.65;;
19137;SDS011;68178;52.188;5.598;2023-03-01T16:31:21;8.43;;;6.60;;